Time;durP1;ratioP1;P1;durP2;ratioP2;P2;SDS_P1;SDS_P2;PMS_P1;PMS_P2;Temp;Humidity;BMP_temperature;BMP_pressure;BME280_temperature;BME280_humidity;BME280_pressure;Samples;Min_cycle;Max_cycle;Signal;HPM_P1;HPM_P2
2021/10/14 00:00:25;;;;;;;10.25;5.45;;;11.20;91.40;;;;;;4954142;28;20085;-57
2021/10/14 00:02:52;;;;;;;11.15;5.90;;;11.10;91.30;;;;;;4970406;28;20097;-55
2021/10/14 00:05:19;;;;;;;10.00;4.80;;;11.00;91.30;;;;;;4976802;28;20043;-58
2021/10/14 00:07:46;;;;;;;8.02;5.60;;;11.00;91.30;;;;;;4969222;28;20042;-58
2021/10/14 00:10:13;;;;;;;9.27;5.13;;;11.00;91.30;;;;;;4979906;28;20178;-56
2021/10/14 00:12:40;;;;;;;9.57;6.38;;;11.00;91.40;;;;;;4973896;28;20518;-58
2021/10/14 00:15:07;;;;;;;9.10;5.78;;;11.00;91.60;;;;;;4982321;28;20092;-57
2021/10/14 00:17:34;;;;;;;8.55;5.88;;;11.00;91.50;;;;;;4972437;28;20078;-57
2021/10/14 00:20:01;;;;;;;12.07;5.65;;;11.00;91.50;;;;;;4973097;28;20089;-56
2021/10/14 00:22:27;;;;;;;8.70;4.78;;;11.00;91.60;;;;;;4972817;28;20050;-57
2021/10/14 00:24:55;;;;;;;7.28;5.05;;;11.00;91.50;;;;;;4978193;28;20122;-56
2021/10/14 00:27:21;;;;;;;9.15;5.85;;;11.00;91.50;;;;;;4981683;28;20070;-56
2021/10/14 00:29:49;;;;;;;9.13;4.88;;;11.00;91.50;;;;;;4976135;28;20126;-57
2021/10/14 00:32:15;;;;;;;10.35;5.88;;;11.00;91.40;;;;;;4975817;28;20046;-57
2021/10/14 00:34:42;;;;;;;10.90;5.45;;;11.00;91.40;;;;;;4978685;28;20101;-58
2021/10/14 00:37:09;;;;;;;10.05;5.95;;;11.00;91.40;;;;;;4973465;28;20043;-57
2021/10/14 00:39:36;;;;;;;10.07;5.60;;;11.00;91.40;;;;;;4977734;28;20046;-57
2021/10/14 00:42:03;;;;;;;11.35;5.75;;;11.00;91.80;;;;;;4973170;28;20083;-55
2021/10/14 00:44:46;;;;;;;8.02;5.63;;;11.10;91.50;;;;;;4975875;28;20077;-58
2021/10/14 00:47:18;;;;;;;9.68;6.15;;;11.10;91.90;;;;;;4953829;28;20047;-57
2021/10/14 00:49:45;;;;;;;12.07;5.88;;;11.10;91.60;;;;;;4975681;28;20046;-58
2021/10/14 00:52:11;;;;;;;10.48;6.05;;;11.10;91.60;;;;;;4972974;28;20086;-55
2021/10/14 00:54:39;;;;;;;10.60;5.50;;;11.00;91.60;;;;;;4972174;28;20457;-55
2021/10/14 00:57:05;;;;;;;10.95;5.47;;;11.10;91.60;;;;;;4984208;28;20170;-57
2021/10/14 00:59:32;;;;;;;8.65;5.32;;;11.10;91.70;;;;;;4970348;28;20058;-56
2021/10/14 01:01:59;;;;;;;11.35;6.43;;;11.20;91.60;;;;;;4978936;28;20446;-56
2021/10/14 01:04:26;;;;;;;8.70;4.78;;;11.10;91.60;;;;;;4980005;28;20108;-57
2021/10/14 01:06:54;;;;;;;7.22;5.05;;;11.20;91.50;;;;;;4614727;28;10000267;-56
2021/10/14 01:09:20;;;;;;;7.38;4.50;;;11.20;91.60;;;;;;4982361;28;20078;-57
2021/10/14 01:11:47;;;;;;;7.55;4.85;;;11.20;91.60;;;;;;4962105;28;20069;-56
2021/10/14 01:14:14;;;;;;;7.32;5.10;;;11.20;91.60;;;;;;4982472;28;20050;-56
2021/10/14 01:16:42;;;;;;;8.25;4.80;;;11.20;91.60;;;;;;4978401;28;20133;-56
2021/10/14 01:19:09;;;;;;;9.93;4.63;;;11.20;91.70;;;;;;4979235;28;20064;-56
2021/10/14 01:21:36;;;;;;;8.07;4.93;;;11.20;91.70;;;;;;4980738;28;20046;-56
2021/10/14 01:24:03;;;;;;;12.10;5.43;;;11.20;91.70;;;;;;4978490;28;20047;-57
2021/10/14 01:26:30;;;;;;;8.27;4.90;;;11.30;91.70;;;;;;4981219;28;20656;-55
2021/10/14 01:28:56;;;;;;;9.40;5.70;;;11.30;91.70;;;;;;4971937;28;20474;-57
2021/10/14 01:31:24;;;;;;;8.30;4.63;;;11.30;91.70;;;;;;4979139;28;20073;-57
2021/10/14 01:33:52;;;;;;;8.60;5.03;;;11.40;91.70;;;;;;4969714;28;20561;-56
2021/10/14 01:36:18;;;;;;;10.27;5.55;;;11.40;91.70;;;;;;4976674;28;20055;-56
2021/10/14 01:38:45;;;;;;;11.60;6.30;;;11.50;91.70;;;;;;4975467;28;20081;-57
2021/10/14 01:41:12;;;;;;;10.68;5.88;;;11.50;91.70;;;;;;4977578;28;20565;-57
2021/10/14 01:43:39;;;;;;;8.18;4.68;;;11.60;91.70;;;;;;4973796;28;20081;-56
2021/10/14 01:46:06;;;;;;;9.35;5.85;;;11.60;91.80;;;;;;4976070;28;20043;-57
2021/10/14 01:48:33;;;;;;;7.93;5.20;;;11.60;91.80;;;;;;4971369;28;20047;-57
2021/10/14 01:50:59;;;;;;;9.60;5.55;;;11.70;91.80;;;;;;4974023;28;20130;-56
2021/10/14 01:53:26;;;;;;;11.05;6.93;;;11.70;91.80;;;;;;4971268;28;20502;-55
2021/10/14 01:55:53;;;;;;;9.93;5.82;;;11.70;91.90;;;;;;4955991;28;20047;-56
2021/10/14 01:58:20;;;;;;;10.40;5.75;;;11.80;91.90;;;;;;4970148;28;20047;-55
2021/10/14 02:00:47;;;;;;;10.98;6.32;;;11.80;91.90;;;;;;4975374;28;20046;-57
2021/10/14 02:03:15;;;;;;;11.30;5.90;;;11.80;91.90;;;;;;4972125;28;20445;-56
2021/10/14 02:05:42;;;;;;;14.80;6.72;;;11.90;91.90;;;;;;4977146;28;20065;-57
2021/10/14 02:08:09;;;;;;;9.57;5.80;;;11.90;91.90;;;;;;4970711;28;20055;-57
2021/10/14 02:10:36;;;;;;;11.95;6.85;;;11.90;91.90;;;;;;4974293;28;20602;-57
2021/10/14 02:13:03;;;;;;;12.10;5.20;;;12.00;91.90;;;;;;4978282;28;20105;-56
2021/10/14 02:15:30;;;;;;;10.43;6.85;;;12.00;91.90;;;;;;4972398;28;20073;-56
2021/10/14 02:17:57;;;;;;;10.02;6.00;;;12.00;91.90;;;;;;4974526;28;20070;-56
2021/10/14 02:20:24;;;;;;;8.10;5.60;;;12.00;92.00;;;;;;4972247;28;20058;-58
2021/10/14 02:22:51;;;;;;;11.95;5.82;;;12.00;92.00;;;;;;4976781;28;20042;-55
2021/10/14 02:25:18;;;;;;;12.73;6.57;;;12.00;92.00;;;;;;4964786;28;20082;-55
2021/10/14 02:27:45;;;;;;;9.75;5.95;;;12.00;92.00;;;;;;4972081;28;20275;-56
2021/10/14 02:30:12;;;;;;;11.63;6.53;;;12.00;92.10;;;;;;4978032;28;20136;-56
2021/10/14 02:32:39;;;;;;;15.70;8.10;;;12.10;92.00;;;;;;4971967;28;20454;-55
2021/10/14 02:35:06;;;;;;;14.65;7.35;;;12.10;92.00;;;;;;4975080;28;20074;-58
2021/10/14 02:37:33;;;;;;;9.55;5.50;;;12.10;92.00;;;;;;4973864;28;20133;-56
2021/10/14 02:40:00;;;;;;;9.82;5.72;;;12.10;92.00;;;;;;4971607;28;20086;-56
2021/10/14 02:42:27;;;;;;;8.13;5.82;;;12.10;92.10;;;;;;4968870;28;20113;-55
2021/10/14 02:44:54;;;;;;;8.35;5.90;;;12.10;92.10;;;;;;4977109;28;20042;-56
2021/10/14 02:47:20;;;;;;;11.93;5.85;;;12.10;92.10;;;;;;4977714;28;20098;-56
2021/10/14 02:49:47;;;;;;;8.25;5.97;;;12.10;92.10;;;;;;4973974;28;20054;-57
2021/10/14 02:52:14;;;;;;;10.93;7.18;;;12.10;92.10;;;;;;4969757;28;20078;-56
2021/10/14 02:54:40;;;;;;;9.27;6.15;;;12.10;92.10;;;;;;4972811;28;20070;-56
2021/10/14 02:57:07;;;;;;;9.68;6.40;;;12.10;92.10;;;;;;4975260;28;20086;-58
2021/10/14 02:59:34;;;;;;;11.48;5.35;;;12.10;92.20;;;;;;4980840;28;20070;-55
2021/10/14 03:02:01;;;;;;;15.27;6.00;;;12.10;92.10;;;;;;4970165;28;20097;-58
2021/10/14 03:04:28;;;;;;;9.30;6.32;;;12.10;92.10;;;;;;4980249;28;20088;-56
2021/10/14 03:06:54;;;;;;;11.73;5.90;;;12.10;92.10;;;;;;4975923;28;20053;-55
2021/10/14 03:09:21;;;;;;;12.98;5.82;;;12.10;92.10;;;;;;4979540;28;20077;-57
2021/10/14 03:11:48;;;;;;;7.80;5.45;;;12.10;92.10;;;;;;4973970;28;20561;-57
2021/10/14 03:14:15;;;;;;;14.48;6.85;;;12.10;92.20;;;;;;4975238;28;20046;-58
2021/10/14 03:16:41;;;;;;;9.35;6.65;;;12.10;92.30;;;;;;4974350;28;20042;-56
2021/10/14 03:19:08;;;;;;;12.85;5.95;;;12.20;92.30;;;;;;4974881;28;20110;-56
2021/10/14 03:21:35;;;;;;;11.77;6.15;;;12.20;92.20;;;;;;4970497;28;20154;-58
2021/10/14 03:24:05;;;;;;;9.45;6.07;;;12.30;92.20;;;;;;4967052;28;20417;-57
2021/10/14 03:26:32;;;;;;;11.38;5.85;;;12.30;92.30;;;;;;4971107;28;20047;-57
2021/10/14 03:28:59;;;;;;;9.25;5.97;;;12.30;92.20;;;;;;4970735;28;20430;-57
2021/10/14 03:31:26;;;;;;;10.48;6.65;;;12.40;92.20;;;;;;4953813;28;20089;-57
2021/10/14 03:33:53;;;;;;;11.85;6.63;;;12.40;92.40;;;;;;4968330;28;20047;-57
2021/10/14 03:36:19;;;;;;;8.30;5.93;;;12.40;92.20;;;;;;4969336;28;20159;-57
2021/10/14 03:38:46;;;;;;;12.73;6.75;;;12.40;92.20;;;;;;4973315;28;20090;-56
2021/10/14 03:41:13;;;;;;;7.05;5.57;;;12.40;92.20;;;;;;4976430;28;20142;-58
2021/10/14 03:43:40;;;;;;;11.45;7.10;;;12.40;92.20;;;;;;4956004;28;20055;-56
2021/10/14 03:46:07;;;;;;;9.95;7.15;;;12.40;92.50;;;;;;4978182;28;20050;-57
2021/10/14 03:48:33;;;;;;;11.00;7.13;;;12.50;92.30;;;;;;4973011;28;20050;-58
2021/10/14 03:51:00;;;;;;;10.40;7.28;;;12.50;92.30;;;;;;4961163;28;20089;-58
2021/10/14 03:53:27;;;;;;;10.25;7.20;;;12.50;92.30;;;;;;4980905;28;20117;-58
2021/10/14 03:55:54;;;;;;;11.27;7.00;;;12.50;92.30;;;;;;4976987;28;20039;-57
2021/10/14 03:58:21;;;;;;;9.07;6.75;;;12.50;92.30;;;;;;4980346;28;20490;-57
2021/10/14 04:00:47;;;;;;;9.50;6.80;;;12.60;92.30;;;;;;4961824;28;20050;-58
2021/10/14 04:03:15;;;;;;;8.32;6.90;;;12.60;92.30;;;;;;4971778;28;20046;-57
2021/10/14 04:05:42;;;;;;;12.38;6.85;;;12.60;92.30;;;;;;4978833;28;20399;-57
2021/10/14 04:08:09;;;;;;;10.77;6.88;;;12.60;92.20;;;;;;4972486;28;20054;-58
2021/10/14 04:10:37;;;;;;;11.00;6.80;;;12.60;92.30;;;;;;4978955;28;20078;-58
2021/10/14 04:13:05;;;;;;;10.45;7.50;;;12.60;92.30;;;;;;4970922;28;20486;-58
2021/10/14 04:15:32;;;;;;;10.82;7.53;;;12.60;92.40;;;;;;4977275;28;20038;-57
2021/10/14 04:17:59;;;;;;;11.18;6.63;;;12.60;92.40;;;;;;4977507;28;20054;-56
2021/10/14 04:20:25;;;;;;;14.45;7.97;;;12.60;92.40;;;;;;4974346;28;20158;-55
2021/10/14 04:22:53;;;;;;;8.55;6.80;;;12.60;92.40;;;;;;4974949;28;20063;-58
2021/10/14 04:25:20;;;;;;;14.65;7.32;;;12.60;92.40;;;;;;4977605;28;20133;-56
2021/10/14 04:27:47;;;;;;;10.68;7.13;;;12.60;92.30;;;;;;4971352;28;20039;-56
2021/10/14 04:30:14;;;;;;;10.25;8.05;;;12.60;92.40;;;;;;4977821;28;20097;-55
2021/10/14 04:32:41;;;;;;;11.38;7.03;;;12.60;92.40;;;;;;4973098;28;20688;-56
2021/10/14 04:35:08;;;;;;;10.73;7.47;;;12.60;92.40;;;;;;4975624;28;20054;-56
2021/10/14 04:37:38;;;;;;;10.15;7.28;;;12.60;92.50;;;;;;4939531;28;20141;-56
2021/10/14 04:40:05;;;;;;;10.93;7.75;;;12.60;92.40;;;;;;4957343;28;20070;-58
2021/10/14 04:42:32;;;;;;;10.85;7.85;;;12.60;92.40;;;;;;4974658;28;20101;-57
2021/10/14 04:44:58;;;;;;;13.98;8.55;;;12.60;92.40;;;;;;4974800;28;20043;-56
2021/10/14 04:47:25;;;;;;;9.50;7.28;;;12.50;92.50;;;;;;4973946;28;20129;-57
2021/10/14 04:49:52;;;;;;;13.38;7.85;;;12.60;92.50;;;;;;4986398;28;20050;-56
2021/10/14 04:52:19;;;;;;;10.52;8.43;;;12.60;92.60;;;;;;4975963;28;20047;-56
2021/10/14 04:54:46;;;;;;;10.05;7.35;;;12.60;92.60;;;;;;4964462;28;20593;-56
2021/10/14 04:57:12;;;;;;;10.43;6.90;;;12.60;92.60;;;;;;4978558;28;20078;-57
2021/10/14 04:59:39;;;;;;;11.02;7.80;;;12.60;92.60;;;;;;4962771;28;20070;-59
2021/10/14 05:02:06;;;;;;;12.05;7.82;;;12.60;92.60;;;;;;4976011;28;20137;-56
2021/10/14 05:04:33;;;;;;;13.60;7.43;;;12.60;92.50;;;;;;4975722;28;20046;-57
2021/10/14 05:07:00;;;;;;;14.55;7.60;;;12.60;92.50;;;;;;4970297;28;20042;-59
2021/10/14 05:09:26;;;;;;;11.13;6.97;;;12.70;92.50;;;;;;4975600;28;20128;-57
2021/10/14 05:11:53;;;;;;;9.10;7.15;;;12.60;92.50;;;;;;4978422;28;20136;-56
2021/10/14 05:14:20;;;;;;;12.02;7.78;;;12.60;92.50;;;;;;4974289;28;20070;-58
2021/10/14 05:16:47;;;;;;;9.35;6.95;;;12.60;92.50;;;;;;4975565;28;20043;-57
2021/10/14 05:19:14;;;;;;;10.77;6.93;;;12.70;92.50;;;;;;4974901;28;20097;-56
2021/10/14 05:21:41;;;;;;;12.00;7.05;;;12.60;92.50;;;;;;4976519;28;20058;-56
2021/10/14 05:24:08;;;;;;;12.00;7.40;;;12.70;92.50;;;;;;4975543;28;20082;-56
2021/10/14 05:26:35;;;;;;;12.55;7.18;;;12.70;92.50;;;;;;4968126;28;20106;-58
2021/10/14 05:29:01;;;;;;;17.60;7.32;;;12.60;92.40;;;;;;4972504;28;20055;-58
2021/10/14 05:31:28;;;;;;;15.30;7.15;;;12.60;92.40;;;;;;4974197;28;20043;-56
2021/10/14 05:33:55;;;;;;;11.07;7.82;;;12.60;92.50;;;;;;4974337;28;20058;-56
2021/10/14 05:36:22;;;;;;;12.55;7.60;;;12.60;92.50;;;;;;4973700;28;20039;-58
2021/10/14 05:38:49;;;;;;;10.52;7.32;;;12.60;92.50;;;;;;4970242;28;20564;-59
2021/10/14 05:41:16;;;;;;;8.02;6.57;;;12.60;92.60;;;;;;4975219;28;20043;-57
2021/10/14 05:43:43;;;;;;;9.80;6.72;;;12.60;92.60;;;;;;4967592;28;20097;-58
2021/10/14 05:46:09;;;;;;;10.68;6.82;;;12.70;92.60;;;;;;4971938;28;20051;-58
2021/10/14 05:48:38;;;;;;;14.98;7.55;;;12.70;92.60;;;;;;4976024;28;20512;-59
2021/10/14 05:51:04;;;;;;;12.23;7.15;;;12.70;92.60;;;;;;4975424;28;20042;-57
2021/10/14 05:53:31;;;;;;;10.30;7.85;;;12.70;92.50;;;;;;4980339;28;20042;-57
2021/10/14 05:55:58;;;;;;;16.00;9.95;;;12.70;92.50;;;;;;4958770;28;20560;-57
2021/10/14 05:58:25;;;;;;;13.82;7.53;;;12.60;92.50;;;;;;4970823;28;20043;-56
2021/10/14 06:00:52;;;;;;;15.77;7.13;;;12.60;92.60;;;;;;4957204;28;20113;-58
2021/10/14 06:03:19;;;;;;;13.07;7.60;;;12.60;92.70;;;;;;4973565;28;20082;-59
2021/10/14 06:05:45;;;;;;;12.80;7.30;;;12.60;92.60;;;;;;4975420;28;20055;-58
2021/10/14 06:08:12;;;;;;;11.73;8.10;;;12.50;92.60;;;;;;4973588;28;20150;-59
2021/10/14 06:10:39;;;;;;;8.43;6.57;;;12.50;92.50;;;;;;4969694;28;20078;-58
2021/10/14 06:13:06;;;;;;;15.10;7.68;;;12.50;92.50;;;;;;4972220;28;20085;-58
2021/10/14 06:15:33;;;;;;;12.68;6.85;;;12.50;92.50;;;;;;4954481;28;20050;-57
2021/10/14 06:18:00;;;;;;;8.07;5.50;;;12.40;92.30;;;;;;4954942;28;20145;-58
2021/10/14 06:20:27;;;;;;;14.07;7.72;;;12.40;92.30;;;;;;4952127;28;20067;-57
2021/10/14 06:22:54;;;;;;;8.18;6.65;;;12.30;92.40;;;;;;4974633;28;20109;-57
2021/10/14 06:25:21;;;;;;;9.70;6.80;;;12.30;92.50;;;;;;4969217;28;20469;-56
2021/10/14 06:27:48;;;;;;;10.93;6.63;;;12.20;92.40;;;;;;4972610;28;20100;-59
2021/10/14 06:30:14;;;;;;;9.10;5.82;;;12.20;92.40;;;;;;4949418;28;20085;-58
2021/10/14 06:32:41;;;;;;;9.35;6.35;;;12.20;92.40;;;;;;4969137;28;20093;-57
2021/10/14 06:35:09;;;;;;;10.95;7.95;;;12.10;92.30;;;;;;4974550;28;20499;-57
2021/10/14 06:37:36;;;;;;;9.65;6.97;;;12.10;92.30;;;;;;4970119;28;20046;-57
2021/10/14 06:40:03;;;;;;;12.27;6.38;;;12.10;92.40;;;;;;4959836;28;20050;-57
2021/10/14 06:42:29;;;;;;;17.73;6.80;;;12.00;92.40;;;;;;4969482;28;20054;-56
2021/10/14 06:44:56;;;;;;;8.93;6.72;;;12.00;92.50;;;;;;4970008;28;20255;-55
2021/10/14 06:47:23;;;;;;;9.35;6.78;;;11.90;92.60;;;;;;4964829;28;20481;-54
2021/10/14 06:49:50;;;;;;;9.35;6.10;;;11.90;92.60;;;;;;4968344;28;20161;-53
2021/10/14 06:52:17;;;;;;;12.48;6.60;;;11.80;92.50;;;;;;4965915;28;20089;-54
2021/10/14 06:54:44;;;;;;;12.25;6.68;;;11.80;92.50;;;;;;4969100;28;20165;-55
2021/10/14 06:57:13;;;;;;;9.10;6.03;;;11.80;92.60;;;;;;4964774;28;20046;-55
2021/10/14 06:59:40;;;;;;;11.95;6.45;;;11.80;92.50;;;;;;4961466;28;20110;-54
2021/10/14 07:02:07;;;;;;;12.30;6.47;;;11.80;92.60;;;;;;4966713;28;20101;-56
2021/10/14 07:04:34;;;;;;;13.27;6.68;;;11.80;92.60;;;;;;4966166;28;20054;-54
2021/10/14 07:07:01;;;;;;;11.10;6.47;;;11.80;92.70;;;;;;4952289;28;20074;-55
2021/10/14 07:09:28;;;;;;;13.20;6.13;;;11.80;92.70;;;;;;4965101;28;20074;-55
2021/10/14 07:12:00;;;;;;;10.43;6.10;;;11.80;92.70;;;;;;4970460;28;20147;-55
2021/10/14 07:14:26;;;;;;;10.13;5.45;;;11.90;92.90;;;;;;4963892;28;20050;-54
2021/10/14 07:16:53;;;;;;;12.77;6.13;;;11.90;92.80;;;;;;4968289;28;20167;-54
2021/10/14 07:19:20;;;;;;;13.45;6.13;;;12.00;92.90;;;;;;4973519;28;20051;-52
2021/10/14 07:21:47;;;;;;;10.05;5.35;;;12.00;92.90;;;;;;4978010;28;20398;-55
2021/10/14 07:24:16;;;;;;;11.52;6.70;;;12.00;92.90;;;;;;4975701;28;20409;-56
2021/10/14 07:26:43;;;;;;;12.38;5.80;;;12.10;92.90;;;;;;4974180;28;20053;-55
2021/10/14 07:29:10;;;;;;;8.88;6.32;;;12.10;92.90;;;;;;4970334;28;20542;-52
2021/10/14 07:31:36;;;;;;;11.80;5.60;;;12.10;92.80;;;;;;4977015;28;20089;-56
2021/10/14 07:34:03;;;;;;;10.27;5.70;;;12.20;92.90;;;;;;4970516;28;20079;-56
2021/10/14 07:36:30;;;;;;;15.13;5.55;;;12.30;93.00;;;;;;4975523;28;20078;-54
2021/10/14 07:38:58;;;;;;;9.88;5.53;;;12.30;92.90;;;;;;4972812;28;20518;-56
2021/10/14 07:41:25;;;;;;;9.45;5.72;;;12.40;92.80;;;;;;4977884;28;20101;-56
2021/10/14 07:43:51;;;;;;;16.35;6.43;;;12.40;92.80;;;;;;4979630;28;20506;-56
2021/10/14 07:46:18;;;;;;;11.05;6.10;;;12.50;92.80;;;;;;4971819;28;20556;-53
2021/10/14 07:48:45;;;;;;;10.52;4.90;;;12.60;92.80;;;;;;4976325;28;20051;-56
2021/10/14 07:51:12;;;;;;;9.02;6.22;;;12.70;92.80;;;;;;4976958;28;20490;-55
2021/10/14 07:53:39;;;;;;;8.25;4.95;;;12.70;92.80;;;;;;4963283;28;20494;-55
2021/10/14 07:56:06;;;;;;;8.60;5.43;;;12.80;92.70;;;;;;4971966;28;20053;-57
2021/10/14 07:58:33;;;;;;;15.18;4.93;;;12.90;92.80;;;;;;4973350;28;20212;-55
2021/10/14 08:01:00;;;;;;;11.00;4.40;;;13.00;92.70;;;;;;4971332;28;20125;-56
2021/10/14 08:03:27;;;;;;;12.95;3.95;;;13.00;92.70;;;;;;4976652;28;20440;-56
2021/10/14 08:05:54;;;;;;;5.03;3.95;;;13.10;92.50;;;;;;4978175;28;20134;-54
2021/10/14 08:08:20;;;;;;;6.28;3.75;;;13.20;92.40;;;;;;4981281;28;20050;-56
2021/10/14 08:10:47;;;;;;;4.20;3.47;;;13.30;92.20;;;;;;4975354;28;20046;-56
2021/10/14 08:13:14;;;;;;;7.97;3.33;;;13.30;92.00;;;;;;4981396;28;20125;-54
2021/10/14 08:15:54;;;;;;;5.53;3.05;;;13.40;92.00;;;;;;4959461;28;20429;-56
2021/10/14 08:18:22;;;;;;;6.65;3.33;;;13.40;91.90;;;;;;4976233;28;20503;-55
2021/10/14 08:20:49;;;;;;;11.45;3.00;;;13.50;91.80;;;;;;4971729;28;20674;-55
2021/10/14 08:23:17;;;;;;;7.15;2.78;;;13.50;91.70;;;;;;4977503;28;20050;-55
2021/10/14 08:25:43;;;;;;;5.50;2.50;;;13.60;91.60;;;;;;4972540;28;20101;-55
2021/10/14 08:28:10;;;;;;;8.32;3.95;;;13.60;91.50;;;;;;4976252;28;20081;-54
2021/10/14 08:30:38;;;;;;;5.95;2.08;;;13.60;91.30;;;;;;4969273;28;20055;-55
2021/10/14 08:33:04;;;;;;;8.00;2.70;;;13.60;91.10;;;;;;4978419;28;20494;-56
2021/10/14 08:35:35;;;;;;;3.28;1.80;;;13.70;90.90;;;;;;4957328;28;20137;-56
2021/10/14 08:38:03;;;;;;;7.18;2.65;;;13.70;90.90;;;;;;4974571;28;20078;-55
2021/10/14 08:40:30;;;;;;;3.60;2.17;;;13.80;90.80;;;;;;4975107;28;20046;-56
2021/10/14 08:43:01;;;;;;;8.27;2.03;;;13.90;90.80;;;;;;4974764;28;20043;-56
2021/10/14 08:45:28;;;;;;;5.80;1.90;;;14.00;90.40;;;;;;4968794;28;20120;-56
2021/10/14 08:47:55;;;;;;;3.92;2.15;;;14.10;90.40;;;;;;4956876;28;20097;-59
2021/10/14 08:50:21;;;;;;;12.15;2.67;;;14.30;90.40;;;;;;4974036;28;20061;-56
2021/10/14 08:52:48;;;;;;;4.78;2.25;;;14.60;90.00;;;;;;4974325;28;20074;-56
2021/10/14 08:55:19;;;;;;;4.70;1.88;;;14.90;89.20;;;;;;4974802;28;20159;-57
2021/10/14 08:57:46;;;;;;;2.78;1.70;;;15.00;88.80;;;;;;4974521;28;20105;-54
2021/10/14 09:00:13;;;;;;;7.68;2.10;;;15.20;88.70;;;;;;4974044;28;20082;-56
2021/10/14 09:02:41;;;;;;;6.38;2.13;;;15.40;87.30;;;;;;4974635;28;20271;-57
2021/10/14 09:05:10;;;;;;;4.18;1.80;;;15.60;86.30;;;;;;4973960;28;20059;-57
2021/10/14 09:07:37;;;;;;;8.55;1.90;;;15.70;85.60;;;;;;4964147;28;20482;-56
2021/10/14 09:10:12;;;;;;;3.50;1.55;;;15.50;83.80;;;;;;4973474;28;20046;-58
2021/10/14 09:12:45;;;;;;;2.95;1.88;;;15.40;82.40;;;;;;4979207;28;20043;-56
2021/10/14 09:15:16;;;;;;;3.93;2.00;;;15.30;84.20;;;;;;4973740;28;20050;-55
2021/10/14 09:17:51;;;;;;;3.25;1.92;;;15.30;84.80;;;;;;4979680;28;20049;-55
2021/10/14 09:20:20;;;;;;;5.05;1.60;;;15.20;85.00;;;;;;4973468;28;20201;-55
2021/10/14 09:23:10;;;;;;;1.52;1.13;;;15.20;83.70;;;;;;4977584;28;20043;-56
2021/10/14 09:25:47;;;;;;;4.00;1.48;;;15.20;82.20;;;;;;4970368;28;20082;-56
2021/10/14 09:28:25;;;;;;;3.00;1.33;;;15.20;84.00;;;;;;4978353;28;20137;-55
2021/10/14 09:30:52;;;;;;;2.28;1.20;;;15.10;82.50;;;;;;4971210;28;20146;-56
2021/10/14 09:33:39;;;;;;;7.57;1.63;;;15.10;83.80;;;;;;4976612;28;20039;-56
2021/10/14 09:36:25;;;;;;;4.65;1.73;;;15.10;81.40;;;;;;4965168;28;20078;-55
2021/10/14 09:39:03;;;;;;;5.70;1.50;;;15.10;83.00;;;;;;4975983;28;20069;-56
2021/10/14 09:41:31;;;;;;;2.55;1.10;;;15.20;82.40;;;;;;4971124;28;20073;-56
2021/10/14 09:44:05;;;;;;;8.10;1.55;;;15.30;84.20;;;;;;4976445;28;20309;-55
2021/10/14 09:46:38;;;;;;;2.78;1.50;;;15.40;84.60;;;;;;4976939;28;20133;-55
2021/10/14 09:49:10;;;;;;;5.00;1.92;;;15.40;83.00;;;;;;4976281;28;20042;-55
2021/10/14 09:51:37;;;;;;;4.40;1.48;;;15.40;84.50;;;;;;4975387;28;20534;-56
2021/10/14 09:54:04;;;;;;;7.97;2.10;;;15.40;84.30;;;;;;4975971;28;20486;-56
2021/10/14 09:56:31;;;;;;;6.80;2.25;;;15.50;83.90;;;;;;4970646;28;20133;-54
2021/10/14 09:59:01;;;;;;;4.65;1.88;;;15.60;82.60;;;;;;4972147;28;20081;-55
2021/10/14 10:01:29;;;;;;;2.72;1.40;;;15.70;84.00;;;;;;4978209;28;20565;-55
2021/10/14 10:03:57;;;;;;;2.63;1.73;;;15.70;83.20;;;;;;4974678;28;20057;-55
2021/10/14 10:06:29;;;;;;;2.67;1.60;;;15.80;81.70;;;;;;4975596;28;20138;-57
2021/10/14 10:08:57;;;;;;;3.53;1.15;;;15.90;80.60;;;;;;4981270;28;20089;-57
2021/10/14 10:11:24;;;;;;;1.70;1.10;;;15.90;78.60;;;;;;4976545;28;20264;-52
2021/10/14 10:13:52;;;;;;;2.55;1.10;;;15.80;77.50;;;;;;4978384;28;20042;-57
2021/10/14 10:16:24;;;;;;;5.25;1.40;;;15.80;77.30;;;;;;4977208;28;20061;-55
2021/10/14 10:18:54;;;;;;;2.75;1.40;;;15.80;77.50;;;;;;4977402;28;20121;-56
2021/10/14 10:21:33;;;;;;;4.25;1.40;;;15.80;78.30;;;;;;4974887;28;20486;-55
2021/10/14 10:24:03;;;;;;;2.65;1.35;;;15.90;76.30;;;;;;4977724;28;20042;-55
2021/10/14 10:26:35;;;;;;;3.25;1.50;;;16.00;78.10;;;;;;4974876;28;20047;-55
2021/10/14 10:29:03;;;;;;;3.78;1.42;;;16.00;78.10;;;;;;4973893;28;20510;-55
2021/10/14 10:31:55;;;;;;;4.75;1.42;;;16.10;78.60;;;;;;4973520;28;20752;-55
2021/10/14 10:37:27;;;;;;;3.78;1.50;;;16.30;76.00;;;;;;4973236;28;20088;-55
2021/10/14 10:39:54;;;;;;;5.30;1.38;;;16.40;72.90;;;;;;4972182;28;20043;-54
2021/10/14 10:42:38;;;;;;;7.68;1.50;;;16.50;76.20;;;;;;4975162;28;20050;-56
2021/10/14 10:45:22;;;;;;;3.40;1.70;;;16.60;72.60;;;;;;4956031;28;20142;-55
2021/10/14 10:47:52;;;;;;;1.67;1.00;;;16.60;76.30;;;;;;4975219;28;20093;-55
2021/10/14 10:50:25;;;;;;;6.10;2.35;;;16.60;76.80;;;;;;4965990;28;20450;-55
2021/10/14 10:53:23;;;;;;;3.67;1.10;;;16.60;72.70;;;;;;4973784;28;20482;-56
2021/10/14 10:55:57;;;;;;;1.52;1.05;;;16.50;71.40;;;;;;4950403;28;20087;-53
2021/10/14 10:58:44;;;;;;;5.40;1.50;;;16.60;71.40;;;;;;4968064;28;20043;-55
2021/10/14 11:01:12;;;;;;;2.08;1.88;;;16.60;71.50;;;;;;4963896;28;20050;-57
2021/10/14 11:03:48;;;;;;;2.78;1.17;;;16.80;74.60;;;;;;4972662;28;20047;-54
2021/10/14 11:06:14;;;;;;;5.28;0.75;;;16.90;72.80;;;;;;4974355;28;20569;-54
2021/10/14 11:08:41;;;;;;;2.00;1.20;;;16.80;71.60;;;;;;4972849;28;20098;-57
2021/10/14 11:11:11;;;;;;;2.42;1.10;;;16.80;73.10;;;;;;4971397;28;20054;-57
2021/10/14 11:13:44;;;;;;;2.72;1.00;;;16.90;72.90;;;;;;4968890;28;20170;-55
2021/10/14 11:16:12;;;;;;;2.47;0.80;;;16.90;71.20;;;;;;4972532;28;20097;-55
2021/10/14 11:18:40;;;;;;;1.73;1.15;;;16.80;72.70;;;;;;4972501;28;20406;-54
2021/10/14 11:21:27;;;;;;;2.75;0.93;;;16.90;71.20;;;;;;4974144;28;20141;-55
2021/10/14 11:23:55;;;;;;;3.63;1.23;;;16.90;72.30;;;;;;4969081;28;20066;-57
2021/10/14 11:26:28;;;;;;;4.82;0.90;;;16.80;70.70;;;;;;4973758;28;20561;-55
2021/10/14 11:29:01;;;;;;;3.38;0.90;;;16.80;72.50;;;;;;4980459;28;20134;-55
2021/10/14 11:32:01;;;;;;;2.58;1.20;;;16.90;70.20;;;;;;4973645;28;20162;-55
2021/10/14 11:34:28;;;;;;;4.05;1.25;;;16.90;68.00;;;;;;4978990;28;20053;-56
2021/10/14 11:36:59;;;;;;;1.75;1.10;;;16.90;71.80;;;;;;4966258;28;20078;-56
2021/10/14 11:39:38;;;;;;;14.63;1.48;;;17.00;70.40;;;;;;4976737;28;20096;-53
2021/10/14 11:42:10;;;;;;;5.70;1.38;;;17.10;69.90;;;;;;4964830;28;20075;-54
2021/10/14 11:44:38;;;;;;;1.13;0.90;;;17.20;70.40;;;;;;4976741;28;20057;-56
2021/10/14 11:47:07;;;;;;;4.22;0.85;;;17.30;71.50;;;;;;4980701;28;20046;-55
2021/10/14 11:49:34;;;;;;;1.42;0.93;;;17.40;70.50;;;;;;4978486;28;20513;-54
2021/10/14 11:52:01;;;;;;;5.43;1.27;;;17.40;69.50;;;;;;4973117;28;20058;-53
2021/10/14 11:54:30;;;;;;;5.30;1.30;;;17.30;68.70;;;;;;4971693;28;20499;-51
2021/10/14 11:56:56;;;;;;;2.03;1.10;;;17.10;69.40;;;;;;4955836;28;20128;-55
2021/10/14 11:59:27;;;;;;;2.97;1.40;;;17.20;70.90;;;;;;4976834;28;20074;-57
2021/10/14 12:02:02;;;;;;;7.05;1.40;;;17.10;67.60;;;;;;4958684;28;20082;-55
2021/10/14 12:04:31;;;;;;;2.97;1.48;;;17.00;68.80;;;;;;4976873;28;20050;-53
2021/10/14 12:06:58;;;;;;;5.68;1.73;;;17.10;71.10;;;;;;4979347;28;20126;-55
2021/10/14 12:09:35;;;;;;;4.18;1.60;;;17.30;71.00;;;;;;4979890;28;20498;-54
2021/10/14 12:12:03;;;;;;;2.58;1.60;;;17.20;71.30;;;;;;4973329;28;20050;-57
2021/10/14 12:14:30;;;;;;;4.80;1.15;;;17.40;70.70;;;;;;4981813;28;20053;-55
2021/10/14 12:17:04;;;;;;;4.03;1.10;;;17.40;69.20;;;;;;4979320;28;20098;-56
2021/10/14 12:19:45;;;;;;;7.90;1.60;;;17.30;68.30;;;;;;4980215;28;20050;-57
2021/10/14 12:22:14;;;;;;;2.75;1.40;;;17.30;68.10;;;;;;4979137;28;20086;-56
2021/10/14 12:25:01;;;;;;;5.55;1.08;;;17.40;69.30;;;;;;4980624;28;20054;-56
2021/10/14 12:27:51;;;;;;;2.47;1.27;;;17.40;68.00;;;;;;4975511;28;20118;-56
2021/10/14 12:30:25;;;;;;;4.75;1.50;;;17.50;68.60;;;;;;4976239;28;20124;-57
2021/10/14 12:32:55;;;;;;;4.78;1.38;;;17.60;69.10;;;;;;4977386;28;20085;-59
2021/10/14 12:35:24;;;;;;;4.90;1.60;;;17.60;69.30;;;;;;4976321;28;20050;-55
2021/10/14 12:38:08;;;;;;;2.00;1.25;;;17.60;68.60;;;;;;4976000;28;20089;-57
2021/10/14 12:40:42;;;;;;;5.18;1.30;;;17.50;67.00;;;;;;4955589;28;20046;-55
2021/10/14 12:43:33;;;;;;;;;;;17.40;68.30;;;;;;4979679;28;20070;-55
2021/10/14 12:51:26;;;;;;;4.38;1.67;;;17.30;69.70;;;;;;4975261;28;20146;-54
2021/10/14 12:54:02;;;;;;;4.78;1.88;;;17.30;70.30;;;;;;4979011;28;20046;-56
2021/10/14 12:56:36;;;;;;;3.45;1.52;;;17.40;68.80;;;;;;4975567;28;20077;-55
2021/10/14 12:59:05;;;;;;;6.47;2.67;;;17.40;68.70;;;;;;4979186;28;20081;-57